createdAt,value
2019-06-08T00:00:23.131Z,52.53
2019-06-08T00:03:13.492Z,52.49
2019-06-08T00:06:05.162Z,52.37
2019-06-08T00:08:55.036Z,52.23
2019-06-08T00:11:45.369Z,52.17
2019-06-08T00:14:34.966Z,52.12
2019-06-08T00:17:37.484Z,52.19
2019-06-08T00:20:19.643Z,52.22
2019-06-08T00:23:09.995Z,52.25
2019-06-08T00:25:59.662Z,52.21
2019-06-08T00:28:50.071Z,52.22
2019-06-08T00:31:40.300Z,52.18
2019-06-08T00:34:30.250Z,52.09
2019-06-08T00:37:20.802Z,51.84
2019-06-08T00:40:11.694Z,51.58
2019-06-08T00:43:01.775Z,51.37
2019-06-08T00:45:52.892Z,51.11
2019-06-08T00:48:46.203Z,50.95
2019-06-08T00:51:36.208Z,50.93
2019-06-08T00:54:29.746Z,50.95
2019-06-08T00:57:19.788Z,50.85
2019-06-08T01:00:12.073Z,50.73
2019-06-08T01:03:02.331Z,50.67
2019-06-08T01:05:51.263Z,50.67
2019-06-08T01:08:41.558Z,50.68
2019-06-08T01:11:31.717Z,50.78
2019-06-08T01:14:21.272Z,50.71
2019-06-08T01:17:11.020Z,50.71
2019-06-08T01:20:01.287Z,50.75
2019-06-08T01:22:51.061Z,50.84
2019-06-08T01:25:40.855Z,50.95
2019-06-08T01:28:31.031Z,50.95
2019-06-08T01:31:22.303Z,51.04
2019-06-08T01:34:16.713Z,51.18
2019-06-08T01:37:06.575Z,51.29
2019-06-08T01:39:56.415Z,51.51
2019-06-08T01:42:46.448Z,51.71
2019-06-08T01:45:36.823Z,51.82
2019-06-08T01:48:28.238Z,51.59
2019-06-08T01:51:18.048Z,51.38
2019-06-08T01:54:08.955Z,51.32
2019-06-08T01:56:59.033Z,51.28
2019-06-08T01:59:48.596Z,51.01
2019-06-08T02:02:38.603Z,50.95
2019-06-08T02:05:30.297Z,50.87
2019-06-08T02:08:20.581Z,50.81
2019-06-08T02:11:10.710Z,50.75
2019-06-08T02:14:01.007Z,50.64
2019-06-08T02:16:51.180Z,50.63
2019-06-08T02:19:41.024Z,50.63
2019-06-08T02:22:31.432Z,50.64
2019-06-08T02:25:29.412Z,50.61
2019-06-08T02:28:19.999Z,50.58
2019-06-08T02:31:09.969Z,50.55
2019-06-08T02:34:00.018Z,50.56
2019-06-08T02:36:49.984Z,50.52
2019-06-08T02:39:39.987Z,50.46
2019-06-08T02:42:31.120Z,50.42
2019-06-08T02:45:22.482Z,50.41
2019-06-08T02:48:12.895Z,50.42
2019-06-08T02:51:03.375Z,50.40
2019-06-08T02:53:53.593Z,50.44
2019-06-08T02:56:46.346Z,50.51
2019-06-08T02:59:40.965Z,50.72
2019-06-08T03:02:33.982Z,50.84
2019-06-08T03:05:25.930Z,50.77
2019-06-08T03:08:15.615Z,50.83
2019-06-08T03:11:07.438Z,50.83
2019-06-08T03:13:59.821Z,50.90
2019-06-08T03:16:49.339Z,50.81
2019-06-08T03:19:40.101Z,50.83
2019-06-08T03:22:32.059Z,50.79
2019-06-08T03:25:22.240Z,50.89
2019-06-08T03:28:12.310Z,50.97
2019-06-08T03:31:02.198Z,50.91
2019-06-08T03:33:55.886Z,50.91
2019-06-08T03:36:54.650Z,50.88
2019-06-08T03:39:36.918Z,50.95
2019-06-08T03:42:26.930Z,50.88
2019-06-08T03:45:17.007Z,50.88
2019-06-08T03:48:07.789Z,50.93
2019-06-08T03:50:57.637Z,51.03
2019-06-08T03:53:47.601Z,50.96
2019-06-08T03:56:40.064Z,50.99
2019-06-08T03:59:30.102Z,51.00
2019-06-08T04:02:20.436Z,50.96
2019-06-08T04:05:10.481Z,50.96
2019-06-08T04:08:00.476Z,50.80
2019-06-08T04:10:50.511Z,50.56
2019-06-08T04:13:42.050Z,50.47
2019-06-08T04:16:32.415Z,50.40
2019-06-08T04:19:22.419Z,50.43
2019-06-08T04:22:12.665Z,50.26
2019-06-08T04:25:02.753Z,50.28
2019-06-08T04:27:53.162Z,50.16
2019-06-08T04:30:44.810Z,50.15
2019-06-08T04:33:35.010Z,50.17
2019-06-08T04:36:24.852Z,49.95
2019-06-08T04:39:14.677Z,49.85
2019-06-08T04:42:04.886Z,49.78
2019-06-08T04:44:54.955Z,49.82
2019-06-08T04:47:46.103Z,49.83
2019-06-08T04:50:36.095Z,49.73
2019-06-08T04:53:26.285Z,49.78
2019-06-08T04:56:16.245Z,49.56
2019-06-08T04:59:07.670Z,49.49
2019-06-08T05:01:57.345Z,49.61
2019-06-08T05:04:47.277Z,49.60
2019-06-08T05:07:37.001Z,49.49
2019-06-08T05:10:26.881Z,49.40
2019-06-08T05:13:17.218Z,49.34
2019-06-08T05:16:08.625Z,49.29
2019-06-08T05:18:58.987Z,49.05
2019-06-08T05:21:49.925Z,49.11
2019-06-08T05:24:39.668Z,48.99
2019-06-08T05:27:30.795Z,48.99
2019-06-08T05:30:21.501Z,48.77
2019-06-08T05:33:11.917Z,48.69
2019-06-08T05:36:01.849Z,48.72
2019-06-08T05:38:51.889Z,48.60
2019-06-08T05:41:41.657Z,48.57
2019-06-08T05:44:31.478Z,48.60
2019-06-08T05:47:21.616Z,48.52
2019-06-08T05:50:11.877Z,48.51
2019-06-08T05:53:02.156Z,48.48
2019-06-08T05:55:52.263Z,48.53
2019-06-08T05:58:42.282Z,48.53
2019-06-08T06:01:32.244Z,48.50
2019-06-08T06:04:22.319Z,48.53
2019-06-08T06:07:12.183Z,48.31
2019-06-08T06:10:02.333Z,48.25
2019-06-08T06:12:51.949Z,48.12
2019-06-08T06:15:42.908Z,48.10
2019-06-08T06:18:32.980Z,48.00
2019-06-08T06:21:23.274Z,48.14
2019-06-08T06:24:13.010Z,48.04
2019-06-08T06:27:03.064Z,47.97
2019-06-08T06:29:52.983Z,47.94
2019-06-08T06:32:43.862Z,48.02
2019-06-08T06:35:33.903Z,48.06
2019-06-08T06:38:23.888Z,48.08
2019-06-08T06:41:13.908Z,48.11
2019-06-08T06:44:04.808Z,48.38
2019-06-08T06:46:55.309Z,48.82
2019-06-08T06:49:44.795Z,49.20
2019-06-08T06:52:34.639Z,49.36
2019-06-08T06:55:25.506Z,49.41
2019-06-08T06:58:16.820Z,49.26
2019-06-08T07:01:07.257Z,49.15
2019-06-08T07:03:57.440Z,49.12
2019-06-08T07:06:48.123Z,49.03
2019-06-08T07:09:38.372Z,48.62
2019-06-08T07:12:28.520Z,48.26
2019-06-08T07:15:27.745Z,48.04
2019-06-08T07:18:18.070Z,48.00
2019-06-08T07:21:07.602Z,48.13
2019-06-08T07:23:57.190Z,47.97
2019-06-08T07:26:46.701Z,47.80
2019-06-08T07:29:37.018Z,47.86
2019-06-08T07:32:28.198Z,47.64
2019-06-08T07:35:18.126Z,47.63
2019-06-08T07:38:07.456Z,47.40
2019-06-08T07:40:59.931Z,47.44
2019-06-08T07:43:50.683Z,47.25
2019-06-08T07:46:40.851Z,46.94
2019-06-08T07:49:30.711Z,46.62
2019-06-08T07:52:20.786Z,46.47
2019-06-08T07:55:11.105Z,45.60
2019-06-08T07:58:01.740Z,45.23
2019-06-08T08:00:52.985Z,45.14
2019-06-08T08:03:43.140Z,44.97
2019-06-08T08:06:33.359Z,43.62
2019-06-08T08:09:23.183Z,44.73
2019-06-08T08:12:13.061Z,44.41
2019-06-08T08:15:03.027Z,44.29
2019-06-08T08:17:53.866Z,44.22
2019-06-08T08:20:43.850Z,44.11
2019-06-08T08:23:34.254Z,43.93
2019-06-08T08:26:27.135Z,43.97
2019-06-08T08:29:17.651Z,43.77
2019-06-08T08:32:09.961Z,43.97
2019-06-08T08:35:02.690Z,44.01
2019-06-08T08:37:56.309Z,43.94
2019-06-08T08:40:43.914Z,43.88
2019-06-08T08:43:37.578Z,43.77
2019-06-08T08:46:28.560Z,43.34
2019-06-08T08:49:20.053Z,43.44
2019-06-08T08:52:11.596Z,43.65
2019-06-08T08:55:02.307Z,43.86
2019-06-08T08:57:54.808Z,43.54
2019-06-08T09:00:45.464Z,43.35
2019-06-08T09:03:35.554Z,43.20
2019-06-08T09:06:27.822Z,43.23
2019-06-08T09:09:18.812Z,43.13
2019-06-08T09:12:10.288Z,43.32
2019-06-08T09:15:02.021Z,43.40
2019-06-08T09:17:53.819Z,43.48
2019-06-08T09:20:43.767Z,43.56
2019-06-08T09:23:33.656Z,43.53
2019-06-08T09:26:23.898Z,43.39
2019-06-08T09:29:14.127Z,43.17
2019-06-08T09:32:04.689Z,42.98
2019-06-08T09:34:57.165Z,42.89
2019-06-08T09:37:48.622Z,43.05
2019-06-08T09:40:38.702Z,42.42
2019-06-08T09:43:29.258Z,41.96
2019-06-08T09:46:19.574Z,41.53
2019-06-08T09:49:11.753Z,41.39
2019-06-08T09:52:03.363Z,40.99
2019-06-08T09:54:54.660Z,40.88
2019-06-08T09:57:45.690Z,40.61
2019-06-08T10:00:39.234Z,40.30
2019-06-08T10:03:31.976Z,39.57
2019-06-08T10:06:23.215Z,39.44
2019-06-08T10:09:18.851Z,39.38
2019-06-08T10:12:28.136Z,38.72
2019-06-08T10:15:18.562Z,38.42
2019-06-08T10:18:12.873Z,38.50
2019-06-08T10:21:04.951Z,38.14
2019-06-08T10:23:54.892Z,37.38
2019-06-08T10:26:44.759Z,36.88
2019-06-08T10:29:38.184Z,36.66
2019-06-08T10:32:28.204Z,35.66
2019-06-08T10:35:20.968Z,35.28
2019-06-08T10:38:11.985Z,35.05
2019-06-08T10:41:12.987Z,34.82
2019-06-08T10:43:54.934Z,34.44
2019-06-08T10:46:45.307Z,33.35
2019-06-08T10:49:38.448Z,32.62
2019-06-08T10:52:28.728Z,32.25
2019-06-08T10:55:19.140Z,31.73
2019-06-08T10:58:11.303Z,31.56
2019-06-08T11:01:04.178Z,30.66
2019-06-08T11:03:52.756Z,30.71
2019-06-08T11:06:42.916Z,30.30
2019-06-08T11:09:32.563Z,29.61
2019-06-08T11:12:22.505Z,29.35
2019-06-08T11:15:12.219Z,28.54
2019-06-08T11:18:05.862Z,28.21
2019-06-08T11:20:53.946Z,27.81
2019-06-08T11:23:44.286Z,27.62
2019-06-08T11:26:34.208Z,27.12
2019-06-08T11:29:23.945Z,26.85
2019-06-08T11:32:14.790Z,26.83
2019-06-08T11:35:06.505Z,24.94
2019-06-08T11:37:58.493Z,24.70
2019-06-08T11:40:48.647Z,24.39
2019-06-08T11:43:38.965Z,23.69
2019-06-08T11:46:28.925Z,24.12
2019-06-08T11:49:19.286Z,23.01
2019-06-08T11:52:11.181Z,22.92
2019-06-08T11:55:02.554Z,23.09
2019-06-08T11:57:54.389Z,23.12
2019-06-08T12:01:00.691Z,22.18
2019-06-08T12:03:49.824Z,21.75
2019-06-08T12:06:39.696Z,20.84
2019-06-08T12:09:29.549Z,20.18
2019-06-08T12:12:21.310Z,19.99
2019-06-08T12:15:13.274Z,20.15
2019-06-08T12:18:03.433Z,21.11
2019-06-08T12:20:53.944Z,21.69
2019-06-08T12:23:44.147Z,22.34
2019-06-08T12:26:35.624Z,22.48
2019-06-08T12:29:28.239Z,22.77
2019-06-08T12:32:18.427Z,23.12
2019-06-08T12:35:10.930Z,23.53
2019-06-08T12:38:00.787Z,23.74
2019-06-08T12:40:50.481Z,23.97
2019-06-08T12:43:40.712Z,23.98
2019-06-08T12:46:30.302Z,23.99
2019-06-08T12:49:20.538Z,24.11
2019-06-08T12:52:12.544Z,24.25
2019-06-08T12:55:06.788Z,24.21
2019-06-08T12:57:53.768Z,24.17
2019-06-08T13:00:44.299Z,23.93
2019-06-08T13:03:34.379Z,23.55
2019-06-08T13:06:24.562Z,23.78
2019-06-08T13:09:15.039Z,24.03
2019-06-08T13:12:07.918Z,23.86
2019-06-08T13:14:59.271Z,24.01
2019-06-08T13:17:50.615Z,23.93
2019-06-08T13:20:40.661Z,24.09
2019-06-08T13:23:30.760Z,24.09
2019-06-08T13:26:27.483Z,24.37
2019-06-08T13:29:13.776Z,24.21
2019-06-08T13:32:03.530Z,24.33
2019-06-08T13:34:52.827Z,23.95
2019-06-08T13:37:42.672Z,23.97
2019-06-08T13:40:32.461Z,23.84
2019-06-08T13:43:22.793Z,24.00
2019-06-08T13:46:13.712Z,24.19
2019-06-08T13:49:03.888Z,24.14
2019-06-08T13:51:54.171Z,24.07
2019-06-08T13:54:44.011Z,23.48
2019-06-08T13:57:34.037Z,23.22
2019-06-08T14:00:38.121Z,22.94
2019-06-08T14:03:27.893Z,22.45
2019-06-08T14:06:19.025Z,22.19
2019-06-08T14:09:09.647Z,21.33
2019-06-08T14:11:59.477Z,21.19
2019-06-08T14:14:49.592Z,20.84
2019-06-08T14:17:39.611Z,20.83
2019-06-08T14:20:34.145Z,20.59
2019-06-08T14:23:22.626Z,20.83
2019-06-08T14:26:12.442Z,21.04
2019-06-08T14:29:02.080Z,20.68
2019-06-08T14:31:52.572Z,21.06
2019-06-08T14:34:42.392Z,21.53
2019-06-08T14:37:32.342Z,21.69
2019-06-08T14:40:23.452Z,21.97
2019-06-08T14:43:14.031Z,22.49
2019-06-08T14:46:04.334Z,22.76
2019-06-08T14:48:54.218Z,23.29
2019-06-08T14:51:50.264Z,23.46
2019-06-08T14:54:40.261Z,23.37
2019-06-08T14:57:30.890Z,23.60
2019-06-08T15:00:24.461Z,23.83
2019-06-08T15:03:17.842Z,23.97
2019-06-08T15:06:07.952Z,24.16
2019-06-08T15:08:58.182Z,24.09
2019-06-08T15:11:48.131Z,24.31
2019-06-08T15:14:38.574Z,24.48
2019-06-08T15:17:30.836Z,24.38
2019-06-08T15:20:20.164Z,24.48
2019-06-08T15:23:10.348Z,24.41
2019-06-08T15:26:00.440Z,24.34
2019-06-08T15:28:49.984Z,24.49
2019-06-08T15:31:41.074Z,24.58
2019-06-08T15:34:32.961Z,24.84
2019-06-08T15:37:23.225Z,24.68
2019-06-08T15:40:14.836Z,24.72
2019-06-08T15:43:05.481Z,24.66
2019-06-08T15:45:55.194Z,24.78
2019-06-08T15:48:45.228Z,24.77
2019-06-08T15:51:40.162Z,24.78
2019-06-08T15:54:29.021Z,24.92
2019-06-08T15:57:17.976Z,25.16
2019-06-08T16:00:10.288Z,25.11
2019-06-08T16:03:00.093Z,25.05
2019-06-08T16:05:49.908Z,25.04
2019-06-08T16:08:39.826Z,25.08
2019-06-08T16:11:30.299Z,25.28
2019-06-08T16:14:20.084Z,25.43
2019-06-08T16:17:09.793Z,25.44
2019-06-08T16:19:59.859Z,25.41
2019-06-08T16:22:49.596Z,25.25
2019-06-08T16:25:40.049Z,25.37
2019-06-08T16:28:29.913Z,25.80
2019-06-08T16:31:20.093Z,25.75
2019-06-08T16:34:09.659Z,25.81
2019-06-08T16:36:59.631Z,25.96
2019-06-08T16:39:49.353Z,25.89
2019-06-08T16:42:38.774Z,25.89
2019-06-08T16:45:28.967Z,25.99
2019-06-08T16:48:19.143Z,25.79
2019-06-08T16:51:08.972Z,25.91
2019-06-08T16:53:58.469Z,25.95
2019-06-08T16:56:48.497Z,26.01
2019-06-08T16:59:38.786Z,26.24
2019-06-08T17:02:28.667Z,26.36
2019-06-08T17:05:17.941Z,26.46
2019-06-08T17:08:08.548Z,26.41
2019-06-08T17:10:58.319Z,26.50
2019-06-08T17:13:48.009Z,26.48
2019-06-08T17:16:38.841Z,26.53
2019-06-08T17:19:29.972Z,26.58
2019-06-08T17:22:20.920Z,26.62
2019-06-08T17:25:11.416Z,26.66
2019-06-08T17:28:01.265Z,26.76
2019-06-08T17:30:51.291Z,26.95
2019-06-08T17:33:41.562Z,26.98
2019-06-08T17:38:56.316Z,27.13
2019-06-08T17:41:46.303Z,27.17
2019-06-08T17:44:36.462Z,27.46
2019-06-08T17:47:26.589Z,27.42
2019-06-08T17:50:17.578Z,27.52
2019-06-08T17:53:07.252Z,27.57
2019-06-08T17:55:58.972Z,27.43
2019-06-08T17:58:49.201Z,27.52
2019-06-08T18:01:39.735Z,27.53
2019-06-08T18:04:29.319Z,27.61
2019-06-08T18:07:18.857Z,27.67
2019-06-08T18:10:08.526Z,27.65
2019-06-08T18:12:58.855Z,27.71
2019-06-08T18:15:48.489Z,27.80
2019-06-08T18:18:41.813Z,28.06
2019-06-08T18:21:30.766Z,28.25
2019-06-08T18:24:20.613Z,28.47
2019-06-08T18:27:10.627Z,28.66
2019-06-08T18:30:08.015Z,28.73
2019-06-08T18:32:53.997Z,28.85
2019-06-08T18:35:44.490Z,29.04
2019-06-08T18:38:34.906Z,29.27
2019-06-08T18:41:27.000Z,29.40
2019-06-08T18:44:17.532Z,29.57
2019-06-08T18:47:07.877Z,29.73
2019-06-08T18:49:58.075Z,29.91
2019-06-08T18:52:49.709Z,29.98
2019-06-08T18:55:41.574Z,30.18
2019-06-08T18:58:31.604Z,30.31
2019-06-08T19:01:22.915Z,30.55
2019-06-08T19:04:12.911Z,30.60
2019-06-08T19:07:03.929Z,30.75
2019-06-08T19:09:54.798Z,30.90
2019-06-08T19:12:46.448Z,31.12
2019-06-08T19:15:41.885Z,31.15
2019-06-08T19:18:29.415Z,31.30
2019-06-08T19:21:19.305Z,31.46
2019-06-08T19:24:09.852Z,31.66
2019-06-08T19:26:59.964Z,31.76
2019-06-08T19:29:51.724Z,31.90
2019-06-08T19:32:42.974Z,32.31
2019-06-08T19:35:34.850Z,32.52
2019-06-08T19:38:27.852Z,32.57
2019-06-08T19:41:17.877Z,32.77
2019-06-08T19:44:07.887Z,32.90
2019-06-08T19:46:58.332Z,33.29
2019-06-08T19:49:54.476Z,33.41
2019-06-08T19:52:42.108Z,33.48
2019-06-08T19:55:31.449Z,33.71
2019-06-08T19:58:21.350Z,33.91
2019-06-08T20:01:11.117Z,34.08
2019-06-08T20:04:01.616Z,34.37
2019-06-08T20:06:51.381Z,34.39
2019-06-08T20:09:41.074Z,34.53
2019-06-08T20:12:30.388Z,34.80
2019-06-08T20:15:20.381Z,35.13
2019-06-08T20:18:10.267Z,35.27
2019-06-08T20:21:00.056Z,35.37
2019-06-08T20:23:50.964Z,35.72
2019-06-08T20:26:42.230Z,36.09
2019-06-08T20:29:31.606Z,36.21
2019-06-08T20:32:21.449Z,36.45
2019-06-08T20:35:11.336Z,36.71
2019-06-08T20:38:01.106Z,36.88
2019-06-08T20:40:52.340Z,37.21
2019-06-08T20:43:42.811Z,37.50
2019-06-08T20:46:32.760Z,37.60
2019-06-08T20:49:22.792Z,37.86
2019-06-08T20:52:13.010Z,38.23
2019-06-08T20:55:03.329Z,38.41
2019-06-08T20:57:53.812Z,38.64
2019-06-08T21:00:44.064Z,38.69
2019-06-08T21:03:34.093Z,39.00
2019-06-08T21:06:24.243Z,39.26
2019-06-08T21:09:14.580Z,39.41
2019-06-08T21:12:04.413Z,39.60
2019-06-08T21:14:55.512Z,39.90
2019-06-08T21:17:49.076Z,40.02
2019-06-08T21:20:37.850Z,40.21
2019-06-08T21:23:31.889Z,40.41
2019-06-08T21:26:20.161Z,40.61
2019-06-08T21:29:09.729Z,40.92
2019-06-08T21:32:02.384Z,41.04
2019-06-08T21:34:52.682Z,41.19
2019-06-08T21:37:42.683Z,41.40
2019-06-08T21:40:32.363Z,41.70
2019-06-08T21:43:22.218Z,41.93
2019-06-08T21:46:11.949Z,42.17
2019-06-08T21:49:01.798Z,42.44
2019-06-08T21:51:53.003Z,42.65
2019-06-08T21:54:43.309Z,42.80
2019-06-08T21:57:33.207Z,42.84
2019-06-08T22:00:38.854Z,43.03
2019-06-08T22:03:17.527Z,43.29
2019-06-08T22:06:08.011Z,43.54
2019-06-08T22:08:59.478Z,43.68
2019-06-08T22:11:50.981Z,43.82
2019-06-08T22:14:40.400Z,43.97
2019-06-08T22:17:30.214Z,44.17
2019-06-08T22:20:20.238Z,44.34
2019-06-08T22:23:09.904Z,44.54
2019-06-08T22:26:01.208Z,44.71
2019-06-08T22:28:53.489Z,44.93
2019-06-08T22:31:43.547Z,45.10
2019-06-08T22:34:33.566Z,45.27
2019-06-08T22:37:23.858Z,45.37
2019-06-08T22:40:14.325Z,45.58
2019-06-08T22:43:04.334Z,45.81
2019-06-08T22:45:54.573Z,45.84
2019-06-08T22:48:43.708Z,46.10
2019-06-08T22:51:33.600Z,46.21
2019-06-08T22:54:23.413Z,46.27
2019-06-08T22:57:13.362Z,46.45
2019-06-08T23:00:14.415Z,46.62
2019-06-08T23:03:00.363Z,46.79
2019-06-08T23:05:48.782Z,46.86
2019-06-08T23:08:38.316Z,46.95
2019-06-08T23:11:28.412Z,47.21
2019-06-08T23:14:18.996Z,47.35
2019-06-08T23:17:08.761Z,47.59
2019-06-08T23:19:59.313Z,47.68
2019-06-08T23:22:50.099Z,47.81
2019-06-08T23:25:40.050Z,47.99
2019-06-08T23:28:30.195Z,48.13
2019-06-08T23:31:25.293Z,48.32
2019-06-08T23:34:12.372Z,48.42
2019-06-08T23:37:06.010Z,48.62
2019-06-08T23:39:54.578Z,48.71
2019-06-08T23:42:44.594Z,48.99
2019-06-08T23:45:34.068Z,49.18
2019-06-08T23:48:23.690Z,49.30
2019-06-08T23:51:13.535Z,49.64
2019-06-08T23:54:04.388Z,50.18
2019-06-08T23:56:55.596Z,49.88
2019-06-08T23:59:47.695Z,49.85
